Time;durP1;ratioP1;P1;durP2;ratioP2;P2;SDS_P1;SDS_P2;PMS_P1;PMS_P2;Temp;Humidity;BMP_temperature;BMP_pressure;BME280_temperature;BME280_humidity;BME280_pressure;Samples;Min_cycle;Max_cycle;Signal;HPM_P1;HPM_P2
2022/09/03 00:00:15;;;;;;;1.63;0.90;;;22.80;98.90;;;;;;1041705;28;20025;-68
2022/09/03 00:00:51;;;;;;;1.77;1.00;;;22.80;99.10;;;;;;1043048;28;20525;-69
2022/09/03 00:01:31;;;;;;;3.30;1.33;;;22.80;99.20;;;;;;1042701;28;20021;-69
2022/09/03 00:02:14;;;;;;;2.40;1.08;;;22.80;99.10;;;;;;1043080;28;20032;-69
2022/09/03 00:02:48;;;;;;;0.98;0.88;;;22.80;99.20;;;;;;1043091;28;20059;-69
2022/09/03 00:03:36;;;;;;;1.65;1.17;;;22.80;99.10;;;;;;1043365;28;20028;-69
2022/09/03 00:04:16;;;;;;;1.63;1.10;;;22.80;99.00;;;;;;1040452;28;20048;-69
2022/09/03 00:05:04;;;;;;;1.15;1.00;;;22.80;99.40;;;;;;1042977;28;20122;-70
2022/09/03 00:05:48;;;;;;;1.75;1.02;;;22.80;99.50;;;;;;1043143;28;20025;-70
2022/09/03 00:06:33;;;;;;;2.10;1.00;;;22.80;99.40;;;;;;1041580;28;20456;-70
2022/09/03 00:07:14;;;;;;;2.10;1.00;;;22.80;99.00;;;;;;1043291;28;20091;-70
2022/09/03 00:07:59;;;;;;;1.02;0.80;;;22.80;99.10;;;;;;1038757;28;20029;-70
2022/09/03 00:08:37;;;;;;;1.92;0.93;;;22.80;99.50;;;;;;1039259;28;20460;-70
2022/09/03 00:09:20;;;;;;;2.75;1.20;;;22.80;99.40;;;;;;1040786;28;20024;-69
2022/09/03 00:09:58;;;;;;;0.70;0.70;;;22.80;99.20;;;;;;1042581;28;20020;-69
2022/09/03 00:10:54;;;;;;;1.90;1.33;;;22.80;99.20;;;;;;1042694;28;20435;-70
2022/09/03 00:11:34;;;;;;;3.45;0.90;;;22.80;99.20;;;;;;1033878;28;20622;-70
2022/09/03 00:12:13;;;;;;;1.17;0.80;;;22.80;99.10;;;;;;1033893;28;20621;-70
2022/09/03 00:12:45;;;;;;;1.88;1.20;;;22.80;99.10;;;;;;1038620;28;20036;-70
2022/09/03 00:13:22;;;;;;;1.20;0.90;;;22.80;99.50;;;;;;1038520;28;20436;-70
2022/09/03 00:14:11;;;;;;;1.67;0.80;;;22.80;99.40;;;;;;1041260;28;20477;-70
2022/09/03 00:14:50;;;;;;;0.85;0.80;;;22.80;99.20;;;;;;1039710;28;20030;-69
2022/09/03 00:15:22;;;;;;;0.85;0.85;;;22.80;99.10;;;;;;1038803;28;20032;-69
2022/09/03 00:15:55;;;;;;;4.15;0.80;;;22.80;99.10;;;;;;1041013;28;20029;-70
2022/09/03 00:16:32;;;;;;;1.33;0.70;;;22.80;99.20;;;;;;1038917;28;20053;-70
2022/09/03 00:17:14;;;;;;;2.03;1.05;;;22.80;99.60;;;;;;1038461;28;20741;-69
2022/09/03 00:17:59;;;;;;;2.53;1.10;;;22.80;99.10;;;;;;1041307;28;20040;-69
2022/09/03 00:18:33;;;;;;;1.38;0.75;;;22.80;99.30;;;;;;1039131;28;20036;-69
2022/09/03 00:19:05;;;;;;;0.88;0.82;;;22.80;99.20;;;;;;1039752;28;20036;-69
2022/09/03 00:19:43;;;;;;;1.65;1.00;;;22.70;99.60;;;;;;1042884;28;20448;-68
2022/09/03 00:20:33;;;;;;;4.03;1.05;;;22.70;99.10;;;;;;1042741;28;20070;-70
2022/09/03 00:21:09;;;;;;;1.45;0.90;;;22.70;99.10;;;;;;1041975;28;20029;-70
2022/09/03 00:21:48;;;;;;;0.88;0.70;;;22.70;99.00;;;;;;1042924;28;20094;-69
2022/09/03 00:22:27;;;;;;;1.13;1.02;;;22.70;99.10;;;;;;1035064;28;20021;-69
2022/09/03 00:23:02;;;;;;;1.88;0.98;;;22.70;99.00;;;;;;1037761;28;20014;-68
2022/09/03 00:23:36;;;;;;;1.90;1.17;;;22.70;99.00;;;;;;1038165;28;20104;-69
2022/09/03 00:24:11;;;;;;;1.58;1.00;;;22.70;99.30;;;;;;1035957;28;20014;-69
2022/09/03 00:24:44;;;;;;;1.27;0.85;;;22.70;99.20;;;;;;1036122;28;20516;-69
2022/09/03 00:25:23;;;;;;;3.42;1.17;;;22.70;98.90;;;;;;1038595;28;20093;-69
2022/09/03 00:26:11;;;;;;;1.17;0.88;;;22.70;99.10;;;;;;1038701;28;20100;-70
2022/09/03 00:26:49;;;;;;;1.00;0.80;;;22.70;99.20;;;;;;1040434;28;20013;-70
2022/09/03 00:27:24;;;;;;;1.00;0.90;;;22.70;99.10;;;;;;1042358;28;20009;-69
2022/09/03 00:27:58;;;;;;;1.00;0.80;;;22.60;99.10;;;;;;1043280;28;20490;-70
2022/09/03 00:28:37;;;;;;;1.60;0.90;;;22.60;99.30;;;;;;1042620;28;20012;-70
2022/09/03 00:29:23;;;;;;;1.10;0.80;;;22.60;99.10;;;;;;1042051;28;20023;-69
2022/09/03 00:30:08;;;;;;;1.95;1.02;;;22.60;99.10;;;;;;1042605;28;20034;-68
2022/09/03 00:30:41;;;;;;;1.10;0.80;;;22.60;99.10;;;;;;1042554;28;20020;-68
2022/09/03 00:31:29;;;;;;;1.67;1.02;;;22.60;99.10;;;;;;1042738;28;20510;-68
2022/09/03 00:32:13;;;;;;;1.50;1.00;;;22.60;99.20;;;;;;1042617;28;20017;-70
2022/09/03 00:33:09;;;;;;;0.80;0.63;;;22.60;99.60;;;;;;1042521;28;20099;-69
2022/09/03 00:33:43;;;;;;;2.55;1.25;;;22.60;99.20;;;;;;1039384;28;20010;-70
2022/09/03 00:34:38;;;;;;;1.20;1.05;;;22.60;99.10;;;;;;1038567;28;20017;-69
2022/09/03 00:35:16;;;;;;;0.95;0.85;;;22.60;99.00;;;;;;1038317;28;20009;-68
2022/09/03 00:36:12;;;;;;;1.10;0.68;;;22.60;99.10;;;;;;1041764;28;20551;-70
2022/09/03 00:36:44;;;;;;;2.05;0.82;;;22.60;99.60;;;;;;1037111;28;20024;-68
2022/09/03 00:37:15;;;;;;;1.25;1.13;;;22.60;99.10;;;;;;1042341;28;20025;-70
2022/09/03 00:37:47;;;;;;;1.53;1.10;;;22.60;99.50;;;;;;1042532;28;20021;-69
2022/09/03 00:38:21;;;;;;;1.38;0.90;;;22.60;99.60;;;;;;1042350;28;20044;-69
2022/09/03 00:38:51;;;;;;;1.45;1.00;;;22.60;99.80;;;;;;1042434;28;20080;-69
2022/09/03 00:39:25;;;;;;;1.40;0.83;;;22.60;99.60;;;;;;1038280;28;20052;-68
2022/09/03 00:39:56;;;;;;;3.00;0.98;;;22.60;99.40;;;;;;1040253;28;20041;-69
2022/09/03 00:40:45;;;;;;;1.03;0.80;;;22.60;99.30;;;;;;1038721;28;20013;-69
2022/09/03 00:41:20;;;;;;;1.38;1.00;;;22.60;99.50;;;;;;1037802;28;20049;-71
2022/09/03 00:42:12;;;;;;;1.30;0.88;;;22.60;99.20;;;;;;1038697;28;20021;-70
2022/09/03 00:42:57;;;;;;;1.40;1.00;;;22.60;99.60;;;;;;1042005;28;20438;-69
2022/09/03 00:43:39;;;;;;;2.72;1.13;;;22.50;99.20;;;;;;1042521;28;20083;-68
2022/09/03 00:44:22;;;;;;;1.20;0.90;;;22.60;99.30;;;;;;1042381;28;20029;-69
2022/09/03 00:45:08;;;;;;;2.53;1.05;;;22.50;99.30;;;;;;1042672;28;20039;-68
2022/09/03 00:45:57;;;;;;;1.70;1.10;;;22.50;99.20;;;;;;1042164;28;20021;-69
2022/09/03 00:46:50;;;;;;;1.20;0.95;;;22.50;99.70;;;;;;1034567;28;20131;-69
2022/09/03 00:47:45;;;;;;;1.60;1.02;;;22.50;99.20;;;;;;1037872;28;20054;-70
2022/09/03 00:48:31;;;;;;;1.10;0.98;;;22.50;99.20;;;;;;1040664;28;20683;-69
2022/09/03 00:49:40;;;;;;;1.92;1.17;;;22.50;99.40;;;;;;1042426;28;20645;-69
2022/09/03 00:50:46;;;;;;;1.17;1.08;;;22.50;99.10;;;;;;1038386;28;20021;-70
2022/09/03 00:51:24;;;;;;;;;;;22.50;99.60;;;;;;1038580;28;20137;-70
2022/09/03 00:52:12;;;;;;;1.15;1.05;;;22.50;99.20;;;;;;1038301;28;19913;-69
2022/09/03 00:52:58;;;;;;;1.02;0.82;;;22.50;99.80;;;;;;1036067;28;20083;-70
2022/09/03 00:53:52;;;;;;;1.27;1.00;;;22.50;99.50;;;;;;1038438;28;20037;-69
2022/09/03 00:55:05;;;;;;;1.55;0.93;;;22.60;99.60;;;;;;1037122;28;20536;-69
2022/09/03 00:55:57;;;;;;;2.50;1.15;;;22.50;99.30;;;;;;1044012;28;20087;-70
2022/09/03 00:56:53;;;;;;;1.55;1.00;;;22.50;99.20;;;;;;1039271;28;20029;-69
2022/09/03 00:57:41;;;;;;;1.55;0.90;;;22.50;99.30;;;;;;1040492;28;20631;-69
2022/09/03 00:58:20;;;;;;;2.38;1.35;;;22.50;99.20;;;;;;1041841;28;20021;-69
2022/09/03 00:59:06;;;;;;;2.40;0.75;;;22.50;99.40;;;;;;1042959;28;20037;-70
2022/09/03 01:00:01;;;;;;;0.68;0.68;;;22.50;99.30;;;;;;1042412;28;20138;-69
2022/09/03 01:00:32;;;;;;;1.48;1.10;;;22.50;99.40;;;;;;1036575;28;20035;-69
2022/09/03 01:01:12;;;;;;;3.30;1.40;;;22.50;99.30;;;;;;1039746;28;20037;-69
2022/09/03 01:01:56;;;;;;;1.25;1.02;;;22.50;99.30;;;;;;1034435;28;20597;-69
2022/09/03 01:02:50;;;;;;;1.80;0.95;;;22.50;99.30;;;;;;1036607;28;20397;-69
2022/09/03 01:03:50;;;;;;;0.93;0.85;;;22.50;99.40;;;;;;1034623;28;20011;-70
2022/09/03 01:05:00;;;;;;;1.40;1.02;;;22.50;99.50;;;;;;1034678;28;20373;-70
2022/09/03 01:05:39;;;;;;;1.17;0.88;;;22.50;99.20;;;;;;1040659;28;20033;-69
2022/09/03 01:06:18;;;;;;;1.17;1.00;;;22.50;99.50;;;;;;1042393;28;20078;-69
2022/09/03 01:06:57;;;;;;;2.00;1.23;;;22.40;99.20;;;;;;1038810;28;20499;-71
2022/09/03 01:07:53;;;;;;;1.67;0.90;;;22.50;99.30;;;;;;1041161;28;20100;-70
2022/09/03 01:08:52;;;;;;;2.55;0.90;;;22.40;99.20;;;;;;1038290;28;20259;-70
2022/09/03 01:09:49;;;;;;;2.00;1.02;;;22.40;99.10;;;;;;1038341;28;20096;-70
2022/09/03 01:10:24;;;;;;;;;;;22.40;99.40;;;;;;1038937;28;20140;-70
2022/09/03 01:11:10;;;;;;;1.50;0.93;;;22.40;99.20;;;;;;1042284;28;19982;-69
2022/09/03 01:12:13;;;;;;;2.55;1.00;;;22.40;99.20;;;;;;1038681;28;20021;-69
2022/09/03 01:13:22;;;;;;;1.58;1.00;;;22.40;99.60;;;;;;1041045;28;20025;-69
2022/09/03 01:14:08;;;;;;;1.45;0.88;;;22.30;99.50;;;;;;1021836;28;20038;-69
2022/09/03 01:14:57;;;;;;;1.55;0.90;;;22.30;99.40;;;;;;1025504;28;20030;-68
2022/09/03 01:15:36;;;;;;;3.63;1.60;;;22.30;99.50;;;;;;1038648;28;20499;-69
2022/09/03 01:16:34;;;;;;;1.48;0.90;;;22.30;99.70;;;;;;1042934;28;20418;-68
2022/09/03 01:17:27;;;;;;;1.90;1.00;;;22.30;99.40;;;;;;1038649;28;20116;-71
2022/09/03 01:18:36;;;;;;;4.85;1.10;;;22.30;99.30;;;;;;1038339;28;20496;-70
2022/09/03 01:19:29;;;;;;;1.23;0.90;;;22.30;99.30;;;;;;1040664;28;20705;-70
2022/09/03 01:20:34;;;;;;;0.88;0.88;;;22.30;99.40;;;;;;1043017;28;20025;-69
2022/09/03 01:21:14;;;;;;;1.45;1.00;;;22.30;99.40;;;;;;1038754;28;20025;-69
2022/09/03 01:22:19;;;;;;;1.83;1.15;;;22.30;99.30;;;;;;1041724;28;20017;-69
2022/09/03 01:23:10;;;;;;;1.42;0.98;;;22.30;99.30;;;;;;1034259;28;20460;-68
2022/09/03 01:24:16;;;;;;;2.15;1.20;;;22.30;99.60;;;;;;1031333;28;20022;-69
2022/09/03 01:25:12;;;;;;;0.75;0.70;;;22.30;99.40;;;;;;1029368;28;20045;-69
2022/09/03 01:25:59;;;;;;;1.65;0.90;;;22.30;99.40;;;;;;1036403;28;20013;-70
2022/09/03 01:26:54;;;;;;;1.58;1.10;;;22.30;99.40;;;;;;1038219;28;20053;-69
2022/09/03 01:28:00;;;;;;;1.80;1.10;;;22.30;99.20;;;;;;1041717;28;20815;-69
2022/09/03 01:28:46;;;;;;;;;;;22.30;99.40;;;;;;1038851;28;20022;-70
2022/09/03 01:29:31;;;;;;;2.08;1.20;;;22.20;99.30;;;;;;1038362;28;20547;-69
2022/09/03 01:30:04;;;;;;;1.25;0.90;;;22.30;99.40;;;;;;1036673;28;20429;-70
2022/09/03 01:30:41;;;;;;;1.77;1.10;;;22.20;99.50;;;;;;1038441;28;20120;-69
2022/09/03 01:31:14;;;;;;;1.77;0.95;;;22.30;99.40;;;;;;1034357;28;20018;-69
2022/09/03 01:32:08;;;;;;;2.95;1.08;;;22.30;99.40;;;;;;1038476;28;20044;-69
2022/09/03 01:33:13;;;;;;;1.42;1.08;;;22.30;99.50;;;;;;1042337;28;20088;-68
2022/09/03 01:33:55;;;;;;;1.58;0.88;;;22.30;99.40;;;;;;1029589;28;20516;-69
2022/09/03 01:34:44;;;;;;;1.92;1.10;;;22.20;99.30;;;;;;1040202;28;20049;-69
2022/09/03 01:35:28;;;;;;;1.10;0.90;;;22.30;99.30;;;;;;1038251;28;20021;-70
2022/09/03 01:36:22;;;;;;;1.88;1.00;;;22.30;99.40;;;;;;1042059;28;20025;-70
2022/09/03 01:37:03;;;;;;;1.50;1.00;;;22.20;99.20;;;;;;1040829;28;20628;-69
2022/09/03 01:37:46;;;;;;;1.20;0.90;;;22.20;99.20;;;;;;1042518;28;20040;-70
2022/09/03 01:38:29;;;;;;;3.67;1.10;;;22.20;99.20;;;;;;1042799;28;20582;-70
2022/09/03 01:39:15;;;;;;;1.00;0.90;;;22.20;99.20;;;;;;1042632;28;20096;-69
2022/09/03 01:40:22;;;;;;;1.95;1.05;;;22.20;99.60;;;;;;1039485;28;20105;-69
2022/09/03 01:42:16;;;;;;;1.30;0.70;;;22.20;99.70;;;;;;1038783;28;20050;-68
2022/09/03 01:43:10;;;;;;;1.05;0.80;;;22.20;99.40;;;;;;1042433;28;20503;-70
2022/09/03 01:43:59;;;;;;;4.43;1.25;;;22.20;99.30;;;;;;1042776;28;20104;-70
2022/09/03 01:44:51;;;;;;;1.23;1.02;;;22.20;99.50;;;;;;1040646;28;20021;-68
2022/09/03 01:45:47;;;;;;;1.27;1.10;;;22.20;99.40;;;;;;1042587;28;20021;-69
2022/09/03 01:46:27;;;;;;;2.63;0.88;;;22.20;99.40;;;;;;1042652;28;20112;-69
2022/09/03 01:47:20;;;;;;;1.95;1.20;;;22.20;99.70;;;;;;1043125;28;20025;-69
2022/09/03 01:48:07;;;;;;;0.95;0.95;;;22.20;99.70;;;;;;1042381;28;20013;-69
2022/09/03 01:49:10;;;;;;;1.00;0.90;;;22.20;99.30;;;;;;1038651;28;20464;-69
2022/09/03 01:49:44;;;;;;;1.55;0.90;;;22.20;99.70;;;;;;1041032;28;20026;-69
2022/09/03 01:50:26;;;;;;;2.03;1.15;;;22.20;99.50;;;;;;1039845;28;20024;-69
2022/09/03 01:51:29;;;;;;;1.77;1.10;;;22.10;99.40;;;;;;1043565;28;20216;-69
2022/09/03 01:52:15;;;;;;;1.67;1.20;;;22.20;99.50;;;;;;1040832;28;20040;-70
2022/09/03 01:52:54;;;;;;;1.33;0.93;;;22.10;99.40;;;;;;1044674;28;20689;-69
2022/09/03 01:54:02;;;;;;;1.85;1.23;;;22.10;99.40;;;;;;1043381;28;20052;-69
2022/09/03 01:54:49;;;;;;;1.10;1.00;;;22.10;99.30;;;;;;1039853;28;20025;-69
2022/09/03 01:55:42;;;;;;;1.63;1.00;;;22.10;99.30;;;;;;1042230;28;20029;-69
2022/09/03 01:56:37;;;;;;;1.15;0.85;;;22.10;99.40;;;;;;1041150;28;20020;-69
2022/09/03 01:57:44;;;;;;;1.42;0.80;;;22.10;99.60;;;;;;1039346;28;20025;-69
2022/09/03 01:58:25;;;;;;;2.10;1.10;;;22.10;99.40;;;;;;1043343;28;20036;-69
2022/09/03 01:59:17;;;;;;;0.93;0.90;;;22.10;99.40;;;;;;1043867;28;20083;-69
2022/09/03 02:00:05;;;;;;;1.83;1.00;;;22.10;99.30;;;;;;1041707;28;20033;-69
2022/09/03 02:00:40;;;;;;;1.60;1.02;;;22.00;99.50;;;;;;1043249;28;20071;-69
2022/09/03 02:01:25;;;;;;;1.80;0.90;;;22.00;99.20;;;;;;1043174;28;20364;-69
2022/09/03 02:02:07;;;;;;;1.00;0.82;;;22.00;99.40;;;;;;1039274;28;20032;-69
2022/09/03 02:02:42;;;;;;;1.52;1.10;;;22.00;99.90;;;;;;1041804;28;20476;-69
2022/09/03 02:03:15;;;;;;;2.75;1.17;;;22.00;99.60;;;;;;1042681;28;20594;-69
2022/09/03 02:03:47;;;;;;;1.00;0.80;;;22.00;99.40;;;;;;1041936;28;20557;-68
2022/09/03 02:04:22;;;;;;;3.38;1.60;;;22.00;99.50;;;;;;1043124;28;20025;-69
2022/09/03 02:05:14;;;;;;;1.38;1.00;;;22.00;99.40;;;;;;1043258;28;20140;-68
2022/09/03 02:05:46;;;;;;;1.85;1.13;;;22.00;99.40;;;;;;1043188;28;20399;-69
2022/09/03 02:06:19;;;;;;;1.48;0.90;;;22.00;99.30;;;;;;1043675;28;20414;-69
2022/09/03 02:06:51;;;;;;;2.95;1.10;;;22.00;99.30;;;;;;1043347;28;20017;-69
2022/09/03 02:07:24;;;;;;;1.30;0.98;;;22.00;99.50;;;;;;1042898;28;20028;-70
2022/09/03 02:08:03;;;;;;;1.58;1.10;;;22.00;99.30;;;;;;1043357;28;20202;-69
2022/09/03 02:08:33;;;;;;;1.13;1.00;;;22.00;99.60;;;;;;1038919;28;20607;-69
2022/09/03 02:09:04;;;;;;;3.33;1.08;;;22.00;99.40;;;;;;1039182;28;20022;-69
2022/09/03 02:09:35;;;;;;;0.87;0.80;;;22.00;99.40;;;;;;1038891;28;20021;-68
2022/09/03 02:10:10;;;;;;;1.20;0.80;;;22.00;99.60;;;;;;1043211;28;20107;-70
2022/09/03 02:10:46;;;;;;;1.63;1.25;;;22.10;99.40;;;;;;1043107;28;20033;-69
2022/09/03 02:11:16;;;;;;;1.27;0.95;;;22.00;99.30;;;;;;1039142;28;20514;-70
2022/09/03 02:12:07;;;;;;;1.00;0.90;;;22.10;99.40;;;;;;1038963;28;20472;-68
2022/09/03 02:12:41;;;;;;;1.13;0.85;;;22.00;99.60;;;;;;1038584;28;20021;-69
2022/09/03 02:13:22;;;;;;;2.13;1.15;;;22.10;99.50;;;;;;1042113;28;20022;-70
2022/09/03 02:13:58;;;;;;;0.98;0.88;;;22.10;99.50;;;;;;1043235;28;20025;-68
2022/09/03 02:14:29;;;;;;;1.77;1.10;;;22.00;99.30;;;;;;1043141;28;20048;-69
2022/09/03 02:15:05;;;;;;;1.13;0.90;;;22.10;99.80;;;;;;1042778;28;20028;-68
2022/09/03 02:15:44;;;;;;;1.17;0.93;;;22.00;99.20;;;;;;1042930;28;20055;-69
2022/09/03 02:16:19;;;;;;;2.25;0.90;;;22.10;99.40;;;;;;1043069;28;20029;-70
2022/09/03 02:16:49;;;;;;;1.83;1.10;;;22.00;99.50;;;;;;1036861;28;20790;-69
2022/09/03 02:17:20;;;;;;;1.20;0.87;;;22.00;99.50;;;;;;1036182;28;20114;-69
2022/09/03 02:17:55;;;;;;;2.90;1.10;;;22.00;99.40;;;;;;1039009;28;20021;-68
2022/09/03 02:18:32;;;;;;;1.13;0.77;;;22.00;99.40;;;;;;1036688;28;20032;-68
2022/09/03 02:19:15;;;;;;;3.05;1.40;;;22.00;99.60;;;;;;1045016;28;20429;-68
2022/09/03 02:19:46;;;;;;;1.92;1.20;;;22.00;99.20;;;;;;1043061;28;20415;-68
2022/09/03 02:20:20;;;;;;;1.10;1.00;;;22.00;99.40;;;;;;1038773;28;20575;-69
2022/09/03 02:20:55;;;;;;;1.02;0.82;;;22.00;99.40;;;;;;1039402;28;20215;-68
2022/09/03 02:21:31;;;;;;;1.83;1.20;;;22.00;99.50;;;;;;1040240;28;20057;-69
2022/09/03 02:22:03;;;;;;;1.33;0.90;;;22.00;99.90;;;;;;1043269;28;20110;-69
2022/09/03 02:22:34;;;;;;;1.45;1.00;;;22.00;99.60;;;;;;1042950;28;20045;-69
2022/09/03 02:23:05;;;;;;;2.50;1.20;;;22.00;99.40;;;;;;1040049;28;20104;-70
2022/09/03 02:23:39;;;;;;;1.42;1.10;;;22.00;99.30;;;;;;1038848;28;20034;-70
2022/09/03 02:24:09;;;;;;;3.03;1.10;;;22.00;99.30;;;;;;1038929;28;20048;-70
2022/09/03 02:24:40;;;;;;;1.47;1.00;;;22.00;99.20;;;;;;1036265;28;20037;-70
2022/09/03 02:25:11;;;;;;;2.00;1.00;;;22.00;99.40;;;;;;1038370;28;20495;-70
2022/09/03 02:25:47;;;;;;;1.70;1.10;;;22.00;99.40;;;;;;1034228;28;20029;-69
2022/09/03 02:26:23;;;;;;;1.30;0.90;;;22.00;99.40;;;;;;1039066;28;20021;-70
2022/09/03 02:26:54;;;;;;;1.23;1.05;;;22.00;99.40;;;;;;1041187;28;20056;-70
2022/09/03 02:27:26;;;;;;;1.75;1.05;;;21.90;99.20;;;;;;1041618;28;20105;-69
2022/09/03 02:27:57;;;;;;;1.40;0.95;;;21.90;99.40;;;;;;1039301;28;20083;-69
2022/09/03 02:28:29;;;;;;;1.10;0.80;;;21.90;99.60;;;;;;1042934;28;20084;-69
2022/09/03 02:29:01;;;;;;;2.35;0.80;;;21.90;99.30;;;;;;1039196;28;20048;-68
2022/09/03 02:29:32;;;;;;;1.85;1.20;;;21.90;99.50;;;;;;1042186;28;20174;-69
2022/09/03 02:30:04;;;;;;;2.63;1.10;;;21.90;99.40;;;;;;1043118;28;20120;-69
2022/09/03 02:30:35;;;;;;;1.30;1.00;;;21.90;99.60;;;;;;1038821;28;20495;-69
2022/09/03 02:31:05;;;;;;;2.97;1.10;;;21.90;99.40;;;;;;1039169;28;20511;-69
2022/09/03 02:31:36;;;;;;;1.13;0.63;;;21.90;99.50;;;;;;1039267;28;20084;-69
2022/09/03 02:32:07;;;;;;;0.90;0.80;;;21.90;99.50;;;;;;1043416;28;20303;-68
2022/09/03 02:32:37;;;;;;;2.07;1.00;;;21.90;99.50;;;;;;1043473;28;20112;-69
2022/09/03 02:33:08;;;;;;;1.33;0.93;;;21.90;99.60;;;;;;1042918;28;20033;-69
2022/09/03 02:33:43;;;;;;;1.80;0.95;;;21.90;99.40;;;;;;1038802;28;20022;-69
2022/09/03 02:34:13;;;;;;;1.30;1.10;;;21.90;99.40;;;;;;1035075;28;20022;-70
2022/09/03 02:34:45;;;;;;;2.90;0.90;;;21.90;99.40;;;;;;1031431;28;20030;-70
2022/09/03 02:35:15;;;;;;;2.65;0.90;;;21.90;99.30;;;;;;1035732;28;20021;-70
2022/09/03 02:35:46;;;;;;;0.90;0.80;;;21.90;99.40;;;;;;1037877;28;20026;-70
2022/09/03 02:36:20;;;;;;;1.27;1.00;;;21.90;99.50;;;;;;1039176;28;20686;-70
2022/09/03 02:36:51;;;;;;;1.63;0.85;;;21.90;99.40;;;;;;1040714;28;20018;-70
2022/09/03 02:37:21;;;;;;;0.80;0.80;;;21.90;99.40;;;;;;1042918;28;20028;-70
2022/09/03 02:37:52;;;;;;;1.83;0.90;;;21.90;99.80;;;;;;1043616;28;20056;-70
2022/09/03 02:38:25;;;;;;;1.87;1.03;;;21.90;99.40;;;;;;1043031;28;20024;-70
2022/09/03 02:38:55;;;;;;;1.15;0.90;;;21.90;99.40;;;;;;1042777;28;20259;-69
2022/09/03 02:39:27;;;;;;;1.47;0.70;;;21.90;99.50;;;;;;1042904;28;20064;-69
2022/09/03 02:39:58;;;;;;;1.17;1.00;;;21.90;99.50;;;;;;1043413;28;20033;-70
2022/09/03 02:40:28;;;;;;;2.97;1.20;;;21.90;99.50;;;;;;1038357;28;20025;-69
2022/09/03 02:40:59;;;;;;;0.97;0.80;;;21.90;99.40;;;;;;1038510;28;20757;-69
2022/09/03 02:41:31;;;;;;;0.87;0.70;;;21.90;99.40;;;;;;1038440;28;20029;-69
2022/09/03 02:42:01;;;;;;;1.42;1.00;;;21.90;99.50;;;;;;1036886;28;20141;-69
2022/09/03 02:42:32;;;;;;;1.30;1.00;;;21.90;99.50;;;;;;1042067;28;20570;-69
2022/09/03 02:43:07;;;;;;;2.50;1.03;;;21.90;99.50;;;;;;1038838;28;20108;-68
2022/09/03 02:43:49;;;;;;;1.90;1.40;;;21.90;99.70;;;;;;1039559;28;20025;-69
2022/09/03 02:44:31;;;;;;;2.35;1.25;;;21.90;99.50;;;;;;1042074;28;20052;-68
2022/09/03 02:45:22;;;;;;;3.75;1.05;;;21.90;99.50;;;;;;1043719;28;20115;-68
2022/09/03 02:46:00;;;;;;;1.85;1.25;;;21.90;99.40;;;;;;1041737;28;20057;-69
2022/09/03 02:46:58;;;;;;;1.42;1.00;;;21.90;99.70;;;;;;1042866;28;20009;-68
2022/09/03 02:47:32;;;;;;;0.85;0.82;;;21.80;99.40;;;;;;1042869;28;20024;-69
2022/09/03 02:48:03;;;;;;;2.00;1.02;;;21.90;99.50;;;;;;1043712;28;20573;-69
2022/09/03 02:48:33;;;;;;;1.55;1.00;;;21.80;99.40;;;;;;1043037;28;20866;-68
2022/09/03 02:49:04;;;;;;;2.07;1.40;;;21.90;99.40;;;;;;1043091;28;20346;-69
2022/09/03 02:49:35;;;;;;;1.27;0.90;;;21.80;99.40;;;;;;1042612;28;20017;-69
2022/09/03 02:50:06;;;;;;;1.87;1.50;;;21.80;99.40;;;;;;1043577;28;20024;-69
2022/09/03 02:50:41;;;;;;;1.95;1.08;;;21.80;99.60;;;;;;1042820;28;20029;-69
2022/09/03 02:51:12;;;;;;;1.58;0.95;;;21.80;99.70;;;;;;1042733;28;20021;-69
2022/09/03 02:51:44;;;;;;;1.17;0.90;;;21.80;99.70;;;;;;1038686;28;20022;-69
2022/09/03 02:52:15;;;;;;;1.17;1.00;;;21.80;99.50;;;;;;1040180;28;20691;-69
2022/09/03 02:52:47;;;;;;;1.00;0.90;;;21.90;99.60;;;;;;1042682;28;20521;-69
2022/09/03 02:53:18;;;;;;;1.23;0.90;;;21.90;99.60;;;;;;1043132;28;20527;-69
2022/09/03 02:53:49;;;;;;;1.00;0.90;;;21.90;99.60;;;;;;1039069;28;20457;-69
2022/09/03 02:54:19;;;;;;;1.37;0.80;;;21.90;99.60;;;;;;1038763;28;20186;-70
2022/09/03 02:54:50;;;;;;;0.97;0.80;;;21.90;99.80;;;;;;1039089;28;20050;-69
2022/09/03 02:55:20;;;;;;;1.13;1.03;;;21.90;99.50;;;;;;1035150;28;20470;-69
2022/09/03 02:55:51;;;;;;;1.60;1.17;;;21.90;99.40;;;;;;1035229;28;20025;-68
2022/09/03 02:56:26;;;;;;;0.60;0.60;;;21.80;99.60;;;;;;1038966;28;20112;-68
2022/09/03 02:56:57;;;;;;;1.33;0.98;;;21.80;99.60;;;;;;1039668;28;20037;-69
2022/09/03 02:57:27;;;;;;;1.27;0.93;;;21.80;99.50;;;;;;1038717;28;20116;-68
2022/09/03 02:57:59;;;;;;;2.30;1.30;;;21.80;99.60;;;;;;1038794;28;20021;-68
2022/09/03 02:58:30;;;;;;;1.80;1.20;;;21.80;99.60;;;;;;1034948;28;20088;-69
2022/09/03 02:59:03;;;;;;;1.02;0.80;;;21.80;99.50;;;;;;1039236;28;20084;-69
2022/09/03 02:59:34;;;;;;;0.77;0.77;;;21.80;99.60;;;;;;1042989;28;20021;-68
2022/09/03 03:00:06;;;;;;;1.08;0.80;;;21.80;99.40;;;;;;1042801;28;20070;-68
2022/09/03 03:00:37;;;;;;;1.10;0.90;;;21.80;99.40;;;;;;1043039;28;20464;-68
2022/09/03 03:01:07;;;;;;;1.23;1.00;;;21.80;99.40;;;;;;1042798;28;20021;-68
2022/09/03 03:01:38;;;;;;;1.90;1.00;;;21.80;99.60;;;;;;1043153;28;20036;-68
2022/09/03 03:02:09;;;;;;;1.63;0.97;;;21.80;99.50;;;;;;1038599;28;20052;-68
2022/09/03 03:02:40;;;;;;;1.10;0.98;;;21.80;99.60;;;;;;1035129;28;20118;-69
2022/09/03 03:03:11;;;;;;;2.35;0.80;;;21.80;99.40;;;;;;1035241;28;20053;-69
2022/09/03 03:03:41;;;;;;;0.97;0.87;;;21.80;99.40;;;;;;1039228;28;20025;-69
2022/09/03 03:04:12;;;;;;;1.30;1.00;;;21.80;99.40;;;;;;1041780;28;20471;-69
2022/09/03 03:04:42;;;;;;;1.13;0.93;;;21.80;99.60;;;;;;1038687;28;20013;-69
2022/09/03 03:05:22;;;;;;;1.13;1.00;;;21.80;99.60;;;;;;1038772;28;20014;-68
2022/09/03 03:05:56;;;;;;;1.52;0.90;;;21.80;99.40;;;;;;1035126;28;20061;-70
2022/09/03 03:06:26;;;;;;;0.95;0.90;;;21.80;99.50;;;;;;1039666;28;20079;-70
2022/09/03 03:06:57;;;;;;;3.70;1.20;;;21.80;99.50;;;;;;1043180;28;20068;-69
2022/09/03 03:07:33;;;;;;;1.23;0.90;;;21.70;99.50;;;;;;1042708;28;20027;-69
2022/09/03 03:08:03;;;;;;;1.58;0.90;;;21.70;99.40;;;;;;1043492;28;20024;-68
2022/09/03 03:08:34;;;;;;;1.00;0.90;;;21.70;99.50;;;;;;1043589;28;20016;-69
2022/09/03 03:09:04;;;;;;;1.47;1.07;;;21.70;99.40;;;;;;1043349;28;20016;-68
2022/09/03 03:09:35;;;;;;;1.43;1.03;;;21.70;99.50;;;;;;1042661;28;20784;-70
2022/09/03 03:10:06;;;;;;;1.10;1.00;;;21.70;99.40;;;;;;1043084;28;20031;-70
2022/09/03 03:10:37;;;;;;;1.20;1.00;;;21.70;99.90;;;;;;1042728;28;20052;-68
2022/09/03 03:11:07;;;;;;;1.83;1.20;;;21.70;99.60;;;;;;1042884;28;20069;-68
2022/09/03 03:11:39;;;;;;;2.13;1.10;;;21.70;99.50;;;;;;1038631;28;20021;-69
2022/09/03 03:12:09;;;;;;;0.98;0.88;;;21.70;99.60;;;;;;1037470;28;20044;-69
2022/09/03 03:12:40;;;;;;;1.47;0.97;;;21.70;99.60;;;;;;1038665;28;20022;-69
2022/09/03 03:13:11;;;;;;;0.93;0.90;;;21.70;99.50;;;;;;1038802;28;20026;-69
2022/09/03 03:13:41;;;;;;;1.25;1.00;;;21.70;99.50;;;;;;1038763;28;20022;-71
2022/09/03 03:14:12;;;;;;;2.33;1.20;;;21.70;99.50;;;;;;1043075;28;20021;-70
2022/09/03 03:14:42;;;;;;;3.17;1.23;;;21.70;99.70;;;;;;1042882;28;20014;-70
2022/09/03 03:15:14;;;;;;;2.90;0.80;;;21.70;99.60;;;;;;1043149;28;20029;-70
2022/09/03 03:15:46;;;;;;;1.38;1.08;;;21.70;99.60;;;;;;1042761;28;20242;-69
2022/09/03 03:16:17;;;;;;;2.05;1.05;;;21.70;99.60;;;;;;1038860;28;20021;-68
2022/09/03 03:16:48;;;;;;;1.20;0.80;;;21.70;99.50;;;;;;1038846;28;20048;-70
2022/09/03 03:17:19;;;;;;;2.22;1.23;;;21.70;99.60;;;;;;1038600;28;20148;-69
2022/09/03 03:17:49;;;;;;;1.43;0.97;;;21.70;99.60;;;;;;1039049;28;20033;-69
2022/09/03 03:18:20;;;;;;;2.57;1.13;;;21.70;99.60;;;;;;1038728;28;20546;-69
2022/09/03 03:18:51;;;;;;;2.70;1.17;;;21.70;99.50;;;;;;1038796;28;20022;-69
2022/09/03 03:19:22;;;;;;;1.10;1.00;;;21.70;99.50;;;;;;1038798;28;20025;-70
2022/09/03 03:19:52;;;;;;;2.90;0.97;;;21.60;99.60;;;;;;1043116;28;20099;-70
2022/09/03 03:20:23;;;;;;;2.03;1.00;;;21.60;99.50;;;;;;1043019;28;20074;-69
2022/09/03 03:20:54;;;;;;;1.80;1.27;;;21.60;99.60;;;;;;1042706;28;20017;-69
2022/09/03 03:21:25;;;;;;;1.40;0.90;;;21.60;99.60;;;;;;1042972;28;20063;-69
2022/09/03 03:21:55;;;;;;;1.47;1.00;;;21.60;99.60;;;;;;1042986;28;20141;-70
2022/09/03 03:22:26;;;;;;;1.20;0.83;;;21.60;99.60;;;;;;1043069;28;20470;-70
2022/09/03 03:22:57;;;;;;;0.93;0.83;;;21.60;99.60;;;;;;1043227;28;20463;-69
2022/09/03 03:23:27;;;;;;;1.57;1.00;;;21.60;99.50;;;;;;1042724;28;20116;-67
2022/09/03 03:23:59;;;;;;;2.03;0.97;;;21.60;99.50;;;;;;1042875;28;20807;-69
2022/09/03 03:24:30;;;;;;;1.88;1.00;;;21.60;99.60;;;;;;1042788;28;20024;-69
2022/09/03 03:25:00;;;;;;;2.83;0.90;;;21.60;99.50;;;;;;1043175;28;20017;-69
2022/09/03 03:25:32;;;;;;;1.30;1.00;;;21.60;99.60;;;;;;1042850;28;20017;-70
2022/09/03 03:26:05;;;;;;;1.17;0.93;;;21.60;99.60;;;;;;1039954;28;20017;-69
2022/09/03 03:26:36;;;;;;;1.45;0.80;;;21.60;99.60;;;;;;1042939;28;20574;-69